sensor_id;sensor_type;location;lat;lon;timestamp;pressure;altitude;pressure_sealevel;temperature;humidity
39954;BME280;25631;51.516;-0.470;2023-07-20T00:00:51;101418.96;;;18.91;31.79
39954;BME280;25631;51.516;-0.470;2023-07-20T00:03:27;101417.19;;;19.11;31.73
39954;BME280;25631;51.516;-0.470;2023-07-20T00:06:04;101414.95;;;19.03;31.70
39954;BME280;25631;51.516;-0.470;2023-07-20T00:08:40;101418.57;;;19.12;31.70
39954;BME280;25631;51.516;-0.470;2023-07-20T00:11:17;101419.24;;;18.96;31.75
39954;BME280;25631;51.516;-0.470;2023-07-20T00:13:54;101419.91;;;18.86;31.97
39954;BME280;25631;51.516;-0.470;2023-07-20T00:16:30;101416.44;;;18.87;32.00
39954;BME280;25631;51.516;-0.470;2023-07-20T00:19:07;101417.09;;;18.83;32.10
39954;BME280;25631;51.516;-0.470;2023-07-20T00:21:43;101417.74;;;19.01;32.11
39954;BME280;25631;51.516;-0.470;2023-07-20T00:24:20;101418.61;;;19.02;32.15
39954;BME280;25631;51.516;-0.470;2023-07-20T00:26:56;101416.22;;;18.59;32.21
39954;BME280;25631;51.516;-0.470;2023-07-20T00:29:33;101418.53;;;18.87;32.41
39954;BME280;25631;51.516;-0.470;2023-07-20T00:32:09;101419.94;;;18.75;32.52
39954;BME280;25631;51.516;-0.470;2023-07-20T00:34:46;101418.05;;;18.71;32.58
39954;BME280;25631;51.516;-0.470;2023-07-20T00:37:22;101417.04;;;18.72;32.58
39954;BME280;25631;51.516;-0.470;2023-07-20T00:39:59;101417.63;;;18.89;32.64
39954;BME280;25631;51.516;-0.470;2023-07-20T00:42:35;101416.52;;;18.47;32.71
39954;BME280;25631;51.516;-0.470;2023-07-20T00:45:12;101417.95;;;18.73;32.82
39954;BME280;25631;51.516;-0.470;2023-07-20T00:47:48;101419.48;;;18.66;32.74
39954;BME280;25631;51.516;-0.470;2023-07-20T00:50:26;101418.61;;;18.84;32.63
39954;BME280;25631;51.516;-0.470;2023-07-20T00:53:04;101416.60;;;18.63;32.55
39954;BME280;25631;51.516;-0.470;2023-07-20T00:55:41;101412.91;;;18.78;32.55
39954;BME280;25631;51.516;-0.470;2023-07-20T00:58:18;101408.24;;;18.65;32.50
39954;BME280;25631;51.516;-0.470;2023-07-20T01:00:54;101404.20;;;18.73;32.55
39954;BME280;25631;51.516;-0.470;2023-07-20T01:03:31;101404.59;;;18.32;32.50
39954;BME280;25631;51.516;-0.470;2023-07-20T01:06:15;101399.98;;;18.49;32.41
39954;BME280;25631;51.516;-0.470;2023-07-20T01:09:11;101398.16;;;18.29;32.32
39954;BME280;25631;51.516;-0.470;2023-07-20T01:11:56;101397.60;;;18.21;32.34
39954;BME280;25631;51.516;-0.470;2023-07-20T01:14:36;101399.25;;;18.17;32.30
39954;BME280;25631;51.516;-0.470;2023-07-20T01:17:13;101400.36;;;18.03;32.30
39954;BME280;25631;51.516;-0.470;2023-07-20T01:19:49;101397.03;;;17.86;32.27
39954;BME280;25631;51.516;-0.470;2023-07-20T01:22:43;101393.20;;;17.80;32.22
39954;BME280;25631;51.516;-0.470;2023-07-20T01:25:34;101393.90;;;17.68;32.17
39954;BME280;25631;51.516;-0.470;2023-07-20T01:28:49;101397.76;;;17.56;32.13
39954;BME280;25631;51.516;-0.470;2023-07-20T01:31:31;101402.92;;;17.67;32.17
39954;BME280;25631;51.516;-0.470;2023-07-20T01:34:09;101406.43;;;17.69;32.19
39954;BME280;25631;51.516;-0.470;2023-07-20T01:36:48;101411.58;;;17.34;32.19
39954;BME280;25631;51.516;-0.470;2023-07-20T01:39:27;101409.43;;;17.30;32.17
39954;BME280;25631;51.516;-0.470;2023-07-20T01:42:04;101407.95;;;17.23;32.16
39954;BME280;25631;51.516;-0.470;2023-07-20T01:44:41;101406.30;;;17.50;32.09
39954;BME280;25631;51.516;-0.470;2023-07-20T01:47:18;101405.28;;;17.68;32.03
39954;BME280;25631;51.516;-0.470;2023-07-20T01:49:55;101403.55;;;17.21;32.03
39954;BME280;25631;51.516;-0.470;2023-07-20T01:52:31;101401.21;;;17.56;31.99
39954;BME280;25631;51.516;-0.470;2023-07-20T01:55:09;101400.90;;;17.37;31.98
39954;BME280;25631;51.516;-0.470;2023-07-20T01:57:45;101401.34;;;17.37;31.99
39954;BME280;25631;51.516;-0.470;2023-07-20T02:00:22;101402.26;;;17.63;31.97
39954;BME280;25631;51.516;-0.470;2023-07-20T02:02:58;101397.88;;;17.36;31.99
39954;BME280;25631;51.516;-0.470;2023-07-20T02:05:35;101396.84;;;17.35;31.93
39954;BME280;25631;51.516;-0.470;2023-07-20T02:08:11;101393.23;;;17.65;31.90
39954;BME280;25631;51.516;-0.470;2023-07-20T02:10:48;101393.59;;;17.38;31.91
39954;BME280;25631;51.516;-0.470;2023-07-20T02:13:25;101393.53;;;17.42;31.89
39954;BME280;25631;51.516;-0.470;2023-07-20T02:16:01;101392.08;;;17.19;31.87
39954;BME280;25631;51.516;-0.470;2023-07-20T02:18:38;101392.58;;;17.29;31.88
39954;BME280;25631;51.516;-0.470;2023-07-20T02:21:14;101395.66;;;17.21;31.84
39954;BME280;25631;51.516;-0.470;2023-07-20T02:23:50;101393.47;;;17.44;31.83
39954;BME280;25631;51.516;-0.470;2023-07-20T02:26:27;101397.28;;;17.40;31.78
39954;BME280;25631;51.516;-0.470;2023-07-20T02:29:03;101390.70;;;17.43;31.77
39954;BME280;25631;51.516;-0.470;2023-07-20T02:31:40;101386.68;;;17.06;31.75
39954;BME280;25631;51.516;-0.470;2023-07-20T02:34:16;101387.89;;;17.05;31.69
39954;BME280;25631;51.516;-0.470;2023-07-20T02:36:53;101388.10;;;17.12;31.68
39954;BME280;25631;51.516;-0.470;2023-07-20T02:39:29;101389.26;;;17.02;31.69
39954;BME280;25631;51.516;-0.470;2023-07-20T02:42:06;101389.34;;;16.93;31.75
39954;BME280;25631;51.516;-0.470;2023-07-20T02:44:42;101393.49;;;16.59;31.74
39954;BME280;25631;51.516;-0.470;2023-07-20T02:47:19;101394.63;;;16.87;31.82
39954;BME280;25631;51.516;-0.470;2023-07-20T02:49:56;101392.39;;;16.47;31.92
39954;BME280;25631;51.516;-0.470;2023-07-20T02:52:32;101391.98;;;16.49;31.93
39954;BME280;25631;51.516;-0.470;2023-07-20T02:55:09;101394.50;;;16.55;31.98
39954;BME280;25631;51.516;-0.470;2023-07-20T02:57:45;101396.61;;;16.45;32.03
39954;BME280;25631;51.516;-0.470;2023-07-20T03:00:21;101396.32;;;16.33;32.03
39954;BME280;25631;51.516;-0.470;2023-07-20T03:02:58;101394.75;;;16.68;32.01
39954;BME280;25631;51.516;-0.470;2023-07-20T03:05:35;101392.76;;;16.50;31.97
39954;BME280;25631;51.516;-0.470;2023-07-20T03:08:11;101392.55;;;16.52;31.89
39954;BME280;25631;51.516;-0.470;2023-07-20T03:10:47;101391.48;;;16.53;31.94
39954;BME280;25631;51.516;-0.470;2023-07-20T03:13:24;101390.80;;;16.59;32.01
39954;BME280;25631;51.516;-0.470;2023-07-20T03:16:00;101391.76;;;16.52;32.16
39954;BME280;25631;51.516;-0.470;2023-07-20T03:18:37;101396.58;;;16.31;32.31
39954;BME280;25631;51.516;-0.470;2023-07-20T03:21:13;101395.89;;;16.14;32.40
39954;BME280;25631;51.516;-0.470;2023-07-20T03:23:50;101397.01;;;16.54;32.50
39954;BME280;25631;51.516;-0.470;2023-07-20T03:26:26;101396.32;;;16.08;32.63
39954;BME280;25631;51.516;-0.470;2023-07-20T03:29:04;101394.48;;;16.39;32.64
39954;BME280;25631;51.516;-0.470;2023-07-20T03:31:41;101394.60;;;16.26;32.74
39954;BME280;25631;51.516;-0.470;2023-07-20T03:34:17;101393.74;;;16.14;32.79
39954;BME280;25631;51.516;-0.470;2023-07-20T03:36:53;101394.27;;;16.22;32.78
39954;BME280;25631;51.516;-0.470;2023-07-20T03:39:30;101396.15;;;16.06;32.83
39954;BME280;25631;51.516;-0.470;2023-07-20T03:42:07;101397.98;;;16.00;32.80
39954;BME280;25631;51.516;-0.470;2023-07-20T03:44:44;101395.10;;;16.02;32.78
39954;BME280;25631;51.516;-0.470;2023-07-20T03:47:20;101392.79;;;16.02;32.80
39954;BME280;25631;51.516;-0.470;2023-07-20T03:49:57;101392.20;;;16.36;32.76
39954;BME280;25631;51.516;-0.470;2023-07-20T03:52:33;101389.78;;;16.08;32.72
39954;BME280;25631;51.516;-0.470;2023-07-20T03:55:10;101386.96;;;16.17;32.78
39954;BME280;25631;51.516;-0.470;2023-07-20T03:57:46;101386.38;;;16.12;32.84
39954;BME280;25631;51.516;-0.470;2023-07-20T04:00:23;101384.83;;;16.05;32.92
39954;BME280;25631;51.516;-0.470;2023-07-20T04:03:00;101384.96;;;16.19;32.90
39954;BME280;25631;51.516;-0.470;2023-07-20T04:05:36;101389.22;;;16.01;32.87
39954;BME280;25631;51.516;-0.470;2023-07-20T04:08:13;101391.10;;;16.12;32.88
39954;BME280;25631;51.516;-0.470;2023-07-20T04:10:49;101392.11;;;15.94;32.86
39954;BME280;25631;51.516;-0.470;2023-07-20T04:13:26;101394.57;;;16.25;32.82
39954;BME280;25631;51.516;-0.470;2023-07-20T04:16:03;101396.75;;;16.28;32.85
39954;BME280;25631;51.516;-0.470;2023-07-20T04:18:39;101395.20;;;16.18;32.86
39954;BME280;25631;51.516;-0.470;2023-07-20T04:21:16;101391.99;;;15.89;33.01
39954;BME280;25631;51.516;-0.470;2023-07-20T04:23:52;101390.22;;;15.97;32.98
39954;BME280;25631;51.516;-0.470;2023-07-20T04:26:29;101390.13;;;15.98;33.02
39954;BME280;25631;51.516;-0.470;2023-07-20T04:29:05;101393.86;;;15.74;33.07
39954;BME280;25631;51.516;-0.470;2023-07-20T04:31:41;101391.26;;;15.68;33.16
39954;BME280;25631;51.516;-0.470;2023-07-20T04:34:18;101389.79;;;15.63;33.26
39954;BME280;25631;51.516;-0.470;2023-07-20T04:36:55;101390.63;;;15.67;33.36
39954;BME280;25631;51.516;-0.470;2023-07-20T04:39:31;101393.79;;;15.54;33.49
39954;BME280;25631;51.516;-0.470;2023-07-20T04:42:07;101399.30;;;15.38;33.72
39954;BME280;25631;51.516;-0.470;2023-07-20T04:44:44;101397.94;;;15.28;33.71
39954;BME280;25631;51.516;-0.470;2023-07-20T04:47:20;101397.69;;;15.23;33.79
39954;BME280;25631;51.516;-0.470;2023-07-20T04:49:57;101397.11;;;15.52;33.78
39954;BME280;25631;51.516;-0.470;2023-07-20T04:52:33;101395.73;;;15.42;33.72
39954;BME280;25631;51.516;-0.470;2023-07-20T04:55:10;101399.97;;;15.31;33.87
39954;BME280;25631;51.516;-0.470;2023-07-20T04:57:46;101397.49;;;15.33;33.85
39954;BME280;25631;51.516;-0.470;2023-07-20T05:00:23;101394.12;;;15.52;33.83
39954;BME280;25631;51.516;-0.470;2023-07-20T05:02:59;101397.09;;;15.45;33.93
39954;BME280;25631;51.516;-0.470;2023-07-20T05:05:36;101398.69;;;15.16;34.00
39954;BME280;25631;51.516;-0.470;2023-07-20T05:08:12;101400.51;;;15.54;34.01
39954;BME280;25631;51.516;-0.470;2023-07-20T05:10:49;101399.72;;;15.24;34.02
39954;BME280;25631;51.516;-0.470;2023-07-20T05:13:26;101399.91;;;15.66;34.05
39954;BME280;25631;51.516;-0.470;2023-07-20T05:16:02;101399.83;;;15.30;34.04
39954;BME280;25631;51.516;-0.470;2023-07-20T05:18:38;101399.83;;;15.53;34.11
39954;BME280;25631;51.516;-0.470;2023-07-20T05:21:15;101397.94;;;15.29;34.20
39954;BME280;25631;51.516;-0.470;2023-07-20T05:23:51;101400.41;;;15.54;34.17
39954;BME280;25631;51.516;-0.470;2023-07-20T05:26:28;101399.94;;;15.29;34.17
39954;BME280;25631;51.516;-0.470;2023-07-20T05:29:04;101403.65;;;15.59;34.11
39954;BME280;25631;51.516;-0.470;2023-07-20T05:31:40;101408.12;;;15.40;34.07
39954;BME280;25631;51.516;-0.470;2023-07-20T05:34:17;101404.03;;;15.53;34.00
39954;BME280;25631;51.516;-0.470;2023-07-20T05:36:53;101399.95;;;15.55;33.96
39954;BME280;25631;51.516;-0.470;2023-07-20T05:39:32;101397.55;;;15.55;33.98
39954;BME280;25631;51.516;-0.470;2023-07-20T05:42:09;101400.03;;;15.72;33.93
39954;BME280;25631;51.516;-0.470;2023-07-20T05:44:46;101398.49;;;15.76;33.80
39954;BME280;25631;51.516;-0.470;2023-07-20T05:47:22;101396.23;;;15.84;33.75
39954;BME280;25631;51.516;-0.470;2023-07-20T05:49:59;101395.32;;;15.84;33.70
39954;BME280;25631;51.516;-0.470;2023-07-20T05:52:36;101395.30;;;15.98;33.59
39954;BME280;25631;51.516;-0.470;2023-07-20T05:55:13;101396.92;;;15.92;33.55
39954;BME280;25631;51.516;-0.470;2023-07-20T05:57:50;101396.71;;;15.86;33.57
39954;BME280;25631;51.516;-0.470;2023-07-20T06:00:26;101398.36;;;15.98;33.59
39954;BME280;25631;51.516;-0.470;2023-07-20T06:03:03;101402.92;;;15.90;33.65
39954;BME280;25631;51.516;-0.470;2023-07-20T06:05:39;101401.35;;;15.93;33.63
39954;BME280;25631;51.516;-0.470;2023-07-20T06:08:15;101398.88;;;15.87;33.57
39954;BME280;25631;51.516;-0.470;2023-07-20T06:10:52;101401.02;;;16.10;33.62
39954;BME280;25631;51.516;-0.470;2023-07-20T06:13:28;101401.59;;;15.97;33.56
39954;BME280;25631;51.516;-0.470;2023-07-20T06:16:05;101404.02;;;16.01;33.57
39954;BME280;25631;51.516;-0.470;2023-07-20T06:18:42;101406.09;;;16.16;33.54
39954;BME280;25631;51.516;-0.470;2023-07-20T06:21:18;101403.83;;;16.33;33.50
39954;BME280;25631;51.516;-0.470;2023-07-20T06:23:54;101401.08;;;16.20;33.57
39954;BME280;25631;51.516;-0.470;2023-07-20T06:26:31;101403.41;;;16.50;33.60
39954;BME280;25631;51.516;-0.470;2023-07-20T06:29:08;101406.63;;;16.41;33.61
39954;BME280;25631;51.516;-0.470;2023-07-20T06:31:45;101408.00;;;16.04;33.59
39954;BME280;25631;51.516;-0.470;2023-07-20T06:34:21;101410.12;;;16.21;33.49
39954;BME280;25631;51.516;-0.470;2023-07-20T06:36:58;101408.02;;;16.63;33.26
39954;BME280;25631;51.516;-0.470;2023-07-20T06:39:35;101411.24;;;16.56;33.09
39954;BME280;25631;51.516;-0.470;2023-07-20T06:42:11;101406.66;;;16.71;32.97
39954;BME280;25631;51.516;-0.470;2023-07-20T06:44:47;101407.62;;;16.46;32.90
39954;BME280;25631;51.516;-0.470;2023-07-20T06:47:27;101407.74;;;16.42;32.90
39954;BME280;25631;51.516;-0.470;2023-07-20T06:50:04;101407.12;;;16.87;32.96
39954;BME280;25631;51.516;-0.470;2023-07-20T06:52:41;101406.11;;;16.67;32.98
39954;BME280;25631;51.516;-0.470;2023-07-20T06:55:17;101409.09;;;16.95;32.93
39954;BME280;25631;51.516;-0.470;2023-07-20T06:57:54;101408.70;;;16.77;32.87
39954;BME280;25631;51.516;-0.470;2023-07-20T07:00:30;101410.46;;;16.94;32.97
39954;BME280;25631;51.516;-0.470;2023-07-20T07:03:07;101409.76;;;16.80;32.99
39954;BME280;25631;51.516;-0.470;2023-07-20T07:05:43;101408.85;;;16.74;32.91
39954;BME280;25631;51.516;-0.470;2023-07-20T07:08:20;101413.25;;;16.80;32.79
39954;BME280;25631;51.516;-0.470;2023-07-20T07:10:57;101414.27;;;16.95;32.80
39954;BME280;25631;51.516;-0.470;2023-07-20T07:13:33;101415.38;;;16.69;32.70
39954;BME280;25631;51.516;-0.470;2023-07-20T07:16:10;101414.65;;;16.69;32.48
39954;BME280;25631;51.516;-0.470;2023-07-20T07:18:46;101410.98;;;16.70;32.48
39954;BME280;25631;51.516;-0.470;2023-07-20T07:21:23;101408.86;;;16.66;32.63
39954;BME280;25631;51.516;-0.470;2023-07-20T07:23:59;101412.34;;;16.91;32.57
39954;BME280;25631;51.516;-0.470;2023-07-20T07:26:36;101411.31;;;16.81;32.57
39954;BME280;25631;51.516;-0.470;2023-07-20T07:29:13;101408.71;;;16.86;32.60
39954;BME280;25631;51.516;-0.470;2023-07-20T07:31:49;101408.13;;;16.67;32.58
39954;BME280;25631;51.516;-0.470;2023-07-20T07:34:26;101406.88;;;16.73;32.55
39954;BME280;25631;51.516;-0.470;2023-07-20T07:37:03;101407.75;;;17.16;32.58
39954;BME280;25631;51.516;-0.470;2023-07-20T07:39:40;101409.78;;;17.33;32.61
39954;BME280;25631;51.516;-0.470;2023-07-20T07:42:16;101403.46;;;17.37;32.68
39954;BME280;25631;51.516;-0.470;2023-07-20T07:44:53;101404.62;;;17.59;32.48
39954;BME280;25631;51.516;-0.470;2023-07-20T07:47:29;101401.95;;;17.42;32.31
39954;BME280;25631;51.516;-0.470;2023-07-20T07:50:07;101403.29;;;17.36;32.30
39954;BME280;25631;51.516;-0.470;2023-07-20T07:52:43;101398.83;;;17.47;32.14
39954;BME280;25631;51.516;-0.470;2023-07-20T07:55:19;101398.66;;;17.76;32.14
39954;BME280;25631;51.516;-0.470;2023-07-20T07:57:56;101398.96;;;17.63;32.17
39954;BME280;25631;51.516;-0.470;2023-07-20T08:00:32;101396.94;;;17.52;32.06
39954;BME280;25631;51.516;-0.470;2023-07-20T08:03:09;101396.37;;;17.55;31.91
39954;BME280;25631;51.516;-0.470;2023-07-20T08:05:46;101398.44;;;17.36;31.90
39954;BME280;25631;51.516;-0.470;2023-07-20T08:08:22;101397.84;;;17.59;31.96
39954;BME280;25631;51.516;-0.470;2023-07-20T08:10:59;101398.63;;;17.70;31.90
39954;BME280;25631;51.516;-0.470;2023-07-20T08:13:36;101400.26;;;17.66;31.61
39954;BME280;25631;51.516;-0.470;2023-07-20T08:16:12;101396.66;;;17.44;31.63
39954;BME280;25631;51.516;-0.470;2023-07-20T08:18:49;101392.50;;;17.82;31.55
39954;BME280;25631;51.516;-0.470;2023-07-20T08:21:25;101392.95;;;17.84;31.42
39954;BME280;25631;51.516;-0.470;2023-07-20T08:24:01;101389.74;;;17.80;31.22
39954;BME280;25631;51.516;-0.470;2023-07-20T08:26:38;101390.35;;;17.86;31.09
39954;BME280;25631;51.516;-0.470;2023-07-20T08:29:14;101387.93;;;18.05;30.92
39954;BME280;25631;51.516;-0.470;2023-07-20T08:31:51;101386.97;;;18.17;30.90
39954;BME280;25631;51.516;-0.470;2023-07-20T08:34:27;101385.89;;;17.91;30.87
39954;BME280;25631;51.516;-0.470;2023-07-20T08:37:04;101381.29;;;17.88;30.55
39954;BME280;25631;51.516;-0.470;2023-07-20T08:39:41;101385.60;;;18.14;30.63
39954;BME280;25631;51.516;-0.470;2023-07-20T08:42:17;101382.40;;;18.20;30.83
39954;BME280;25631;51.516;-0.470;2023-07-20T08:44:54;101384.76;;;18.44;31.03
39954;BME280;25631;51.516;-0.470;2023-07-20T08:47:32;101384.29;;;18.24;30.85
39954;BME280;25631;51.516;-0.470;2023-07-20T08:50:09;101383.27;;;18.32;30.75
39954;BME280;25631;51.516;-0.470;2023-07-20T08:52:48;101384.25;;;18.52;30.60
39954;BME280;25631;51.516;-0.470;2023-07-20T08:55:27;101382.68;;;18.30;30.19
39954;BME280;25631;51.516;-0.470;2023-07-20T08:58:05;101380.78;;;18.38;30.03
39954;BME280;25631;51.516;-0.470;2023-07-20T09:00:45;101383.28;;;18.43;29.68
39954;BME280;25631;51.516;-0.470;2023-07-20T09:03:22;101379.45;;;18.40;28.96
39954;BME280;25631;51.516;-0.470;2023-07-20T09:05:59;101379.42;;;18.60;28.43
39954;BME280;25631;51.516;-0.470;2023-07-20T09:08:38;101379.38;;;18.56;28.62
39954;BME280;25631;51.516;-0.470;2023-07-20T09:11:14;101378.80;;;18.66;28.96
39954;BME280;25631;51.516;-0.470;2023-07-20T09:14:03;101382.53;;;18.78;29.05
39954;BME280;25631;51.516;-0.470;2023-07-20T09:16:47;101379.97;;;18.70;28.36
39954;BME280;25631;51.516;-0.470;2023-07-20T09:19:24;101379.49;;;18.61;28.15
39954;BME280;25631;51.516;-0.470;2023-07-20T09:22:00;101379.85;;;18.88;28.21
39954;BME280;25631;51.516;-0.470;2023-07-20T09:24:37;101375.56;;;19.00;28.29
39954;BME280;25631;51.516;-0.470;2023-07-20T09:27:14;101374.55;;;18.60;28.27
39954;BME280;25631;51.516;-0.470;2023-07-20T09:29:51;101373.43;;;19.05;28.25
39954;BME280;25631;51.516;-0.470;2023-07-20T09:32:28;101372.84;;;18.93;28.23
39954;BME280;25631;51.516;-0.470;2023-07-20T09:35:05;101372.63;;;19.25;28.31
39954;BME280;25631;51.516;-0.470;2023-07-20T09:37:46;101368.44;;;19.17;28.26
39954;BME280;25631;51.516;-0.470;2023-07-20T09:40:24;101367.29;;;19.20;28.28
39954;BME280;25631;51.516;-0.470;2023-07-20T09:43:01;101368.66;;;19.39;27.35
39954;BME280;25631;51.516;-0.470;2023-07-20T09:45:40;101364.48;;;19.12;27.31
39954;BME280;25631;51.516;-0.470;2023-07-20T09:48:17;101360.82;;;19.14;27.31
39954;BME280;25631;51.516;-0.470;2023-07-20T09:50:54;101359.65;;;19.12;27.57
39954;BME280;25631;51.516;-0.470;2023-07-20T09:53:32;101360.37;;;19.26;27.30
39954;BME280;25631;51.516;-0.470;2023-07-20T09:56:09;101354.35;;;19.19;27.31
39954;BME280;25631;51.516;-0.470;2023-07-20T09:58:46;101355.75;;;19.49;27.16
39954;BME280;25631;51.516;-0.470;2023-07-20T10:01:23;101356.06;;;19.52;26.74
39954;BME280;25631;51.516;-0.470;2023-07-20T10:04:03;101356.56;;;19.24;26.29
39954;BME280;25631;51.516;-0.470;2023-07-20T10:06:42;101353.53;;;19.56;26.27
39954;BME280;25631;51.516;-0.470;2023-07-20T10:09:19;101345.51;;;19.92;26.23
39954;BME280;25631;51.516;-0.470;2023-07-20T10:11:59;101345.50;;;19.96;26.04
39954;BME280;25631;51.516;-0.470;2023-07-20T10:14:40;101345.12;;;19.66;25.76
39954;BME280;25631;51.516;-0.470;2023-07-20T10:17:19;101343.17;;;19.74;25.83
39954;BME280;25631;51.516;-0.470;2023-07-20T10:19:58;101346.65;;;19.73;25.56
39954;BME280;25631;51.516;-0.470;2023-07-20T10:22:37;101337.20;;;19.59;25.70
39954;BME280;25631;51.516;-0.470;2023-07-20T10:25:15;101337.41;;;19.79;25.47
39954;BME280;25631;51.516;-0.470;2023-07-20T10:27:53;101338.34;;;20.09;25.09
39954;BME280;25631;51.516;-0.470;2023-07-20T10:30:30;101341.30;;;20.27;24.58
39954;BME280;25631;51.516;-0.470;2023-07-20T10:33:07;101333.43;;;20.05;24.74
39954;BME280;25631;51.516;-0.470;2023-07-20T10:35:54;101332.13;;;20.10;24.71
39954;BME280;25631;51.516;-0.470;2023-07-20T10:38:39;101330.34;;;20.30;24.48
39954;BME280;25631;51.516;-0.470;2023-07-20T10:41:17;101329.68;;;20.41;24.34
39954;BME280;25631;51.516;-0.470;2023-07-20T10:43:58;101331.29;;;20.49;23.79
39954;BME280;25631;51.516;-0.470;2023-07-20T10:46:43;101334.19;;;20.59;23.79
39954;BME280;25631;51.516;-0.470;2023-07-20T10:49:19;101331.54;;;20.58;24.17
39954;BME280;25631;51.516;-0.470;2023-07-20T10:51:58;101329.81;;;20.44;24.27
39954;BME280;25631;51.516;-0.470;2023-07-20T10:54:35;101328.25;;;20.50;24.33
39954;BME280;25631;51.516;-0.470;2023-07-20T10:57:25;101327.56;;;20.54;24.50
39954;BME280;25631;51.516;-0.470;2023-07-20T11:00:10;101327.51;;;20.70;24.44
39954;BME280;25631;51.516;-0.470;2023-07-20T11:02:48;101320.79;;;20.53;24.27
39954;BME280;25631;51.516;-0.470;2023-07-20T11:05:33;101317.82;;;20.75;24.04
39954;BME280;25631;51.516;-0.470;2023-07-20T11:08:11;101322.80;;;20.82;24.18
39954;BME280;25631;51.516;-0.470;2023-07-20T11:11:21;101317.30;;;20.92;24.47
39954;BME280;25631;51.516;-0.470;2023-07-20T11:13:59;101314.68;;;21.34;24.07
39954;BME280;25631;51.516;-0.470;2023-07-20T11:16:39;101316.28;;;20.96;23.06
39954;BME280;25631;51.516;-0.470;2023-07-20T11:19:18;101312.61;;;21.48;23.11
39954;BME280;25631;51.516;-0.470;2023-07-20T11:21:56;101306.57;;;21.32;23.25
39954;BME280;25631;51.516;-0.470;2023-07-20T11:24:33;101305.52;;;21.69;23.26
39954;BME280;25631;51.516;-0.470;2023-07-20T11:27:09;101303.80;;;21.24;23.46
39954;BME280;25631;51.516;-0.470;2023-07-20T11:29:45;101304.14;;;21.59;23.26
39954;BME280;25631;51.516;-0.470;2023-07-20T11:32:23;101309.35;;;21.41;22.68
39954;BME280;25631;51.516;-0.470;2023-07-20T11:34:59;101309.73;;;21.55;22.78
39954;BME280;25631;51.516;-0.470;2023-07-20T11:37:36;101303.88;;;21.76;22.69
39954;BME280;25631;51.516;-0.470;2023-07-20T11:40:13;101303.11;;;21.88;22.81
39954;BME280;25631;51.516;-0.470;2023-07-20T11:42:49;101300.10;;;21.83;22.49
39954;BME280;25631;51.516;-0.470;2023-07-20T11:45:26;101294.48;;;21.71;22.22
39954;BME280;25631;51.516;-0.470;2023-07-20T11:48:03;101298.05;;;21.78;22.32
39954;BME280;25631;51.516;-0.470;2023-07-20T11:50:39;101293.94;;;22.06;21.82
39954;BME280;25631;51.516;-0.470;2023-07-20T11:53:17;101293.80;;;21.85;21.23
39954;BME280;25631;51.516;-0.470;2023-07-20T11:55:53;101287.45;;;22.20;21.17
39954;BME280;25631;51.516;-0.470;2023-07-20T11:58:30;101287.72;;;21.89;21.26
39954;BME280;25631;51.516;-0.470;2023-07-20T12:01:06;101288.57;;;21.66;21.10
39954;BME280;25631;51.516;-0.470;2023-07-20T12:03:43;101284.61;;;21.99;21.26
39954;BME280;25631;51.516;-0.470;2023-07-20T12:06:23;101282.12;;;22.24;21.21
39954;BME280;25631;51.516;-0.470;2023-07-20T12:09:00;101281.78;;;22.61;21.11
39954;BME280;25631;51.516;-0.470;2023-07-20T12:11:37;101282.77;;;22.52;20.89
39954;BME280;25631;51.516;-0.470;2023-07-20T12:14:14;101277.69;;;22.61;20.85
39954;BME280;25631;51.516;-0.470;2023-07-20T12:16:53;101273.88;;;22.65;21.05
39954;BME280;25631;51.516;-0.470;2023-07-20T12:19:30;101274.95;;;22.59;20.90
39954;BME280;25631;51.516;-0.470;2023-07-20T12:22:06;101274.64;;;22.87;20.62
39954;BME280;25631;51.516;-0.470;2023-07-20T12:24:43;101274.37;;;22.66;20.18
39954;BME280;25631;51.516;-0.470;2023-07-20T12:27:19;101277.20;;;22.97;19.85
39954;BME280;25631;51.516;-0.470;2023-07-20T12:29:56;101271.09;;;22.95;20.24
39954;BME280;25631;51.516;-0.470;2023-07-20T12:32:33;101270.28;;;22.61;20.30
39954;BME280;25631;51.516;-0.470;2023-07-20T12:35:09;101269.90;;;22.76;20.29
39954;BME280;25631;51.516;-0.470;2023-07-20T12:37:46;101270.65;;;23.08;20.41
39954;BME280;25631;51.516;-0.470;2023-07-20T12:40:22;101266.59;;;22.97;21.02
39954;BME280;25631;51.516;-0.470;2023-07-20T12:42:59;101266.05;;;22.98;20.99
39954;BME280;25631;51.516;-0.470;2023-07-20T12:45:36;101263.31;;;22.95;21.00
39954;BME280;25631;51.516;-0.470;2023-07-20T12:48:12;101264.01;;;23.15;20.91
39954;BME280;25631;51.516;-0.470;2023-07-20T12:50:48;101258.30;;;22.90;20.76
39954;BME280;25631;51.516;-0.470;2023-07-20T12:53:25;101253.88;;;22.84;21.20
39954;BME280;25631;51.516;-0.470;2023-07-20T12:56:01;101248.86;;;22.76;20.90
39954;BME280;25631;51.516;-0.470;2023-07-20T12:58:38;101246.40;;;22.97;20.95
39954;BME280;25631;51.516;-0.470;2023-07-20T13:01:14;101246.63;;;23.20;20.89
39954;BME280;25631;51.516;-0.470;2023-07-20T13:03:51;101244.64;;;23.08;20.61
39954;BME280;25631;51.516;-0.470;2023-07-20T13:06:27;101241.44;;;23.44;20.42
39954;BME280;25631;51.516;-0.470;2023-07-20T13:09:03;101234.84;;;23.69;19.72
39954;BME280;25631;51.516;-0.470;2023-07-20T13:11:40;101230.22;;;23.96;19.19
39954;BME280;25631;51.516;-0.470;2023-07-20T13:14:16;101229.03;;;24.09;19.21
39954;BME280;25631;51.516;-0.470;2023-07-20T13:16:52;101223.51;;;24.44;19.05
39954;BME280;25631;51.516;-0.470;2023-07-20T13:19:29;101219.68;;;24.72;19.22
39954;BME280;25631;51.516;-0.470;2023-07-20T13:22:05;101217.27;;;24.60;18.98
39954;BME280;25631;51.516;-0.470;2023-07-20T13:24:45;101218.81;;;22.79;18.42
39954;BME280;25631;51.516;-0.470;2023-07-20T13:27:21;101216.89;;;24.78;18.21
39954;BME280;25631;51.516;-0.470;2023-07-20T13:29:58;101214.38;;;24.67;17.88
39954;BME280;25631;51.516;-0.470;2023-07-20T13:32:35;101212.38;;;24.42;18.65